Time;durP1;ratioP1;P1;durP2;ratioP2;P2;SDS_P1;SDS_P2;PMS_P1;PMS_P2;Temp;Humidity;BMP_temperature;BMP_pressure;BME280_temperature;BME280_humidity;BME280_pressure;Samples;Min_cycle;Max_cycle;Signal;HPM_P1;HPM_P2
2023/02/25 00:02:23;;;;;;;6.90;4.00;;;;;;;-4.59;77.68;94274.78;4964504;28;20136;-66
2023/02/25 00:04:48;;;;;;;10.77;4.15;;;;;;;-4.52;76.88;94274.34;4965611;28;20100;-66
2023/02/25 00:07:14;;;;;;;17.25;5.60;;;;;;;-4.51;76.05;94275.97;4965784;28;20447;-66
2023/02/25 00:09:40;;;;;;;16.23;5.90;;;;;;;-4.43;75.87;94276.22;4965283;28;20546;-66
2023/02/25 00:12:05;;;;;;;16.95;5.07;;;;;;;-4.62;76.10;94276.81;4965689;28;20175;-66
2023/02/25 00:14:30;;;;;;;20.40;6.05;;;;;;;-4.51;75.93;94273.38;4965306;28;20112;-66
2023/02/25 00:16:56;;;;;;;19.92;6.60;;;;;;;-4.54;75.51;94289.19;4965245;28;20102;-66
2023/02/25 00:19:24;;;;;;;15.05;5.50;;;;;;;-4.63;76.84;94296.75;4963801;28;20069;-66
2023/02/25 00:21:50;;;;;;;14.98;5.28;;;;;;;-4.91;77.69;94291.03;4962963;28;20357;-66
2023/02/25 00:24:15;;;;;;;18.00;5.82;;;;;;;-4.62;76.93;94302.78;4965738;28;20696;-66
2023/02/25 00:26:40;;;;;;;20.10;8.32;;;;;;;-5.20;79.19;94304.41;4962706;28;20583;-66
2023/02/25 00:29:06;;;;;;;14.45;5.22;;;;;;;-5.30;80.39;94306.03;4964972;28;20448;-66
2023/02/25 00:31:31;;;;;;;10.93;4.40;;;;;;;-4.88;78.78;94301.22;4964887;28;20089;-66
2023/02/25 00:33:57;;;;;;;12.75;5.65;;;;;;;-4.64;76.45;94302.91;4965414;28;20370;-66
2023/02/25 00:36:23;;;;;;;16.85;5.25;;;;;;;-4.87;77.78;94305.44;4965729;28;20211;-66
2023/02/25 00:38:49;;;;;;;15.98;6.10;;;;;;;-4.82;77.13;94320.69;4964576;28;20101;-66
2023/02/25 00:41:16;;;;;;;17.65;6.93;;;;;;;-5.12;78.36;94322.03;4965034;28;20113;-66
2023/02/25 00:43:46;;;;;;;21.73;7.63;;;;;;;-5.66;79.45;94309.41;4965545;28;20073;-66
2023/02/25 00:46:12;;;;;;;23.00;6.30;;;;;;;-5.16;78.43;94310.22;4962952;28;20110;-66
2023/02/25 00:48:38;;;;;;;8.80;3.80;;;;;;;-4.90;76.92;94305.69;4963557;28;20082;-66
2023/02/25 00:51:11;;;;;;;12.35;4.85;;;;;;;-4.53;74.97;94315.06;4962323;28;20076;-66
2023/02/25 00:53:36;;;;;;;6.25;3.50;;;;;;;-4.60;76.07;94319.06;4962426;28;20094;-66
2023/02/25 00:56:02;;;;;;;13.77;4.90;;;;;;;-5.06;76.74;94313.78;4962208;28;20149;-66
2023/02/25 00:58:27;;;;;;;11.55;4.78;;;;;;;-4.88;76.19;94310.75;4962838;28;20588;-66
2023/02/25 01:00:53;;;;;;;23.45;7.00;;;;;;;-5.09;76.35;94317.41;4961514;28;20097;-66
2023/02/25 01:03:18;;;;;;;14.77;5.55;;;;;;;-5.23;78.76;94313.25;4962955;28;20083;-66
2023/02/25 01:05:48;;;;;;;20.65;5.80;;;;;;;-4.86;76.83;94319.28;4962026;28;20455;-66
2023/02/25 01:08:15;;;;;;;14.60;5.30;;;;;;;-4.56;74.78;94318.72;4964889;28;20113;-66
2023/02/25 01:10:40;;;;;;;9.25;3.70;;;;;;;-4.99;76.79;94311.56;4962149;28;20087;-66
2023/02/25 01:13:05;;;;;;;14.57;6.10;;;;;;;-5.18;75.99;94312.91;4962464;28;20095;-66
2023/02/25 01:15:31;;;;;;;21.98;6.25;;;;;;;-5.34;77.75;94310.59;4962040;28;20060;-66
2023/02/25 01:17:56;;;;;;;15.27;4.63;;;;;;;-5.00;75.93;94313.31;4963264;28;20090;-66
2023/02/25 01:20:23;;;;;;;17.40;4.20;;;;;;;-4.68;76.01;94299.69;4961307;28;20123;-66
2023/02/25 01:22:48;;;;;;;20.02;5.95;;;;;;;-4.78;75.27;94306.53;4964442;28;20137;-66
2023/02/25 01:25:16;;;;;;;11.27;3.95;;;;;;;-4.48;74.74;94306.94;4964013;28;20101;-66
2023/02/25 01:27:41;;;;;;;16.73;5.93;;;;;;;-4.20;73.26;94308.25;4964914;28;20072;-66
2023/02/25 01:30:07;;;;;;;13.65;4.75;;;;;;;-4.31;73.39;94311.66;4963832;28;20311;-66
2023/02/25 01:32:33;;;;;;;13.60;5.70;;;;;;;-4.78;74.99;94314.31;4963461;28;20098;-66
2023/02/25 01:34:58;;;;;;;19.92;6.63;;;;;;;-4.87;76.09;94307.22;4963651;28;20143;-66
2023/02/25 01:37:24;;;;;;;18.25;6.07;;;;;;;-4.57;74.79;94304.09;4964156;28;20103;-66
2023/02/25 01:39:49;;;;;;;24.17;8.02;;;;;;;-4.76;75.27;94311.63;4965823;28;20073;-66
2023/02/25 01:42:15;;;;;;;12.70;5.53;;;;;;;-4.57;74.89;94306.69;4967396;28;20101;-66
2023/02/25 01:45:14;;;;;;;15.10;5.70;;;;;;;-4.67;75.26;94305.72;4967145;28;20909;-66
2023/02/25 01:47:39;;;;;;;12.97;4.87;;;;;;;-4.52;75.19;94313.31;4965275;28;20135;-66
2023/02/25 01:50:05;;;;;;;11.52;4.68;;;;;;;-4.28;76.42;94310.56;4967767;28;20108;-66
2023/02/25 01:52:30;;;;;;;15.30;5.38;;;;;;;-4.91;76.10;94322.19;4966880;28;20136;-66
2023/02/25 01:54:55;;;;;;;22.95;7.78;;;;;;;-5.14;76.32;94322.13;4965087;28;20069;-66
2023/02/25 01:57:21;;;;;;;9.75;4.07;;;;;;;-4.90;76.53;94316.06;4965421;28;20342;-66
2023/02/25 01:59:47;;;;;;;10.75;4.07;;;;;;;-4.57;74.70;94321.44;4968001;28;20120;-66
2023/02/25 02:02:13;;;;;;;15.80;6.05;;;;;;;-4.64;74.98;94326.28;4963689;28;20163;-66
2023/02/25 02:04:39;;;;;;;24.08;7.25;;;;;;;-5.08;75.46;94324.28;4967736;28;20527;-66
2023/02/25 02:07:05;;;;;;;12.27;5.90;;;;;;;-4.70;74.89;94324.13;4967425;28;20120;-66
2023/02/25 02:09:31;;;;;;;10.70;4.88;;;;;;;-4.47;73.85;94318.97;4965628;28;20186;-66
2023/02/25 02:12:01;;;;;;;11.13;4.82;;;;;;;-4.36;73.28;94321.56;4967552;28;20097;-66
2023/02/25 02:14:32;;;;;;;8.98;5.07;;;;;;;-4.64;73.84;94331.47;4966390;28;20530;-66
2023/02/25 02:17:18;;;;;;;17.10;5.10;;;;;;;-4.37;72.97;94329.50;4962046;28;20346;-66
2023/02/25 02:19:46;;;;;;;19.15;5.57;;;;;;;-4.48;73.71;94317.31;4965661;28;20105;-66
2023/02/25 02:22:14;;;;;;;10.02;4.68;;;;;;;-4.32;73.64;94314.34;4965715;28;20109;-66
2023/02/25 02:24:58;;;;;;;11.27;4.95;;;;;;;-4.13;72.73;94312.94;4965504;28;20079;-66
2023/02/25 02:27:58;;;;;;;14.07;5.35;;;;;;;-4.30;73.39;94318.53;4967025;28;20089;-65
2023/02/25 02:30:27;;;;;;;19.60;6.45;;;;;;;-4.46;73.97;94318.00;4949053;28;20091;-65
2023/02/25 02:33:17;;;;;;;21.58;7.18;;;;;;;-5.04;74.90;94318.84;4964612;28;20107;-65
2023/02/25 02:36:00;;;;;;;13.35;5.57;;;;;;;-4.95;75.75;94307.78;4965907;28;20070;-65
2023/02/25 02:38:41;;;;;;;13.65;5.53;;;;;;;-4.67;73.84;94316.13;4965918;28;20100;-65
2023/02/25 02:41:13;;;;;;;16.52;5.93;;;;;;;-4.89;74.83;94309.91;4967404;28;20098;-65
2023/02/25 02:43:45;;;;;;;15.90;6.40;;;;;;;-4.91;74.99;94305.78;4966459;28;20078;-66
2023/02/25 02:46:24;;;;;;;13.75;4.55;;;;;;;-4.43;73.47;94317.78;4967297;28;20543;-65
2023/02/25 02:48:53;;;;;;;9.27;4.20;;;;;;;-4.57;73.98;94318.84;4950001;28;20220;-65
2023/02/25 02:51:32;;;;;;;18.85;6.10;;;;;;;-4.41;73.25;94318.50;4966348;28;20155;-65
2023/02/25 02:53:58;;;;;;;;;;;;;;;-4.60;74.26;94309.50;4965036;28;20604;-66
2023/02/25 02:56:24;;;;;;;18.45;5.78;;;;;;;-4.71;74.61;94312.09;4965907;28;20027;-65
2023/02/25 02:58:58;;;;;;;7.38;3.95;;;;;;;-4.75;75.42;94318.47;4950177;28;20093;-65
2023/02/25 03:01:32;;;;;;;23.30;7.97;;;;;;;-5.18;77.63;94317.28;4950665;28;20102;-65
2023/02/25 03:04:02;;;;;;;15.02;6.00;;;;;;;-4.76;76.41;94311.63;4950599;28;20149;-65
2023/02/25 03:06:32;;;;;;;7.65;3.42;;;;;;;-4.75;75.96;94326.25;4965876;28;20280;-66
2023/02/25 03:09:05;;;;;;;21.63;7.85;;;;;;;-5.24;77.95;94332.34;4967060;28;20108;-65
2023/02/25 03:11:30;;;;;;;16.10;6.55;;;;;;;-5.10;77.35;94323.56;4958685;28;20543;-65
2023/02/25 03:13:56;;;;;;;14.30;5.15;;;;;;;-5.10;77.95;94323.56;4967204;28;20096;-65
2023/02/25 03:16:25;;;;;;;24.63;5.82;;;;;;;-5.02;77.89;94324.75;4966101;28;20239;-65
2023/02/25 03:19:14;;;;;;;11.50;4.32;;;;;;;-4.56;76.01;94316.13;4957777;28;20131;-65
2023/02/25 03:21:46;;;;;;;11.82;4.15;;;;;;;-4.34;74.56;94317.09;4958874;28;20616;-65
2023/02/25 03:24:22;;;;;;;12.45;5.20;;;;;;;-4.52;75.45;94323.69;4966542;28;20071;-65
2023/02/25 03:26:51;;;;;;;15.38;7.00;;;;;;;-4.70;75.63;94313.75;4949561;28;20126;-65
2023/02/25 03:29:19;;;;;;;15.45;4.88;;;;;;;-4.39;74.67;94323.59;4966344;28;20119;-66
2023/02/25 03:31:50;;;;;;;9.65;4.80;;;;;;;-4.35;74.44;94315.44;4975039;28;20073;-66
2023/02/25 03:34:20;;;;;;;9.65;4.25;;;;;;;-4.26;74.45;94323.47;4965278;28;20107;-66
2023/02/25 03:36:59;;;;;;;9.52;4.35;;;;;;;-4.04;73.66;94322.66;4966497;28;20100;-65
2023/02/25 03:39:29;;;;;;;;;;;;;;;-4.06;73.89;94324.53;4950513;28;20086;-65
2023/02/25 03:41:57;;;;;;;5.22;3.65;;;;;;;-4.34;74.68;94324.06;4965151;28;19991;-65
2023/02/25 03:44:35;;;;;;;5.63;3.70;;;;;;;-4.61;75.49;94323.44;4965000;28;20165;-65
2023/02/25 03:47:02;;;;;;;8.13;3.92;;;;;;;-4.65;75.37;94329.81;4956897;28;20103;-65
2023/02/25 03:49:30;;;;;;;9.25;3.65;;;;;;;-4.21;74.89;94331.75;4948717;28;20615;-65
2023/02/25 03:51:56;;;;;;;10.05;4.40;;;;;;;-3.83;72.59;94337.50;4949065;28;20070;-66
2023/02/25 03:54:21;;;;;;;7.10;3.78;;;;;;;-4.14;73.70;94343.34;4948136;28;20471;-66
2023/02/25 03:56:48;;;;;;;12.48;4.75;;;;;;;-4.47;74.98;94344.94;4965475;28;20097;-65
2023/02/25 03:59:13;;;;;;;11.93;5.97;;;;;;;-4.62;75.32;94342.56;4962730;28;20396;-66
2023/02/25 04:01:39;;;;;;;13.35;6.35;;;;;;;-4.81;75.81;94345.72;4964103;28;20094;-66
2023/02/25 04:04:05;;;;;;;13.93;6.05;;;;;;;-5.05;77.06;94361.34;4962885;28;20533;-65
2023/02/25 04:06:30;;;;;;;13.38;5.53;;;;;;;-4.79;76.62;94346.41;4964859;28;20148;-66
2023/02/25 04:08:57;;;;;;;14.75;5.82;;;;;;;-4.75;76.70;94350.47;4965964;28;20179;-66
2023/02/25 04:11:22;;;;;;;11.80;5.45;;;;;;;-5.00;76.84;94351.47;4964581;28;20192;-65
2023/02/25 04:13:47;;;;;;;11.65;5.22;;;;;;;-5.00;76.79;94357.47;4964801;28;20128;-65
2023/02/25 04:16:13;;;;;;;14.38;5.75;;;;;;;-4.99;76.57;94346.13;4965475;28;20106;-65
2023/02/25 04:18:38;;;;;;;13.20;5.38;;;;;;;-5.10;78.02;94356.47;4965949;28;20105;-66
2023/02/25 04:21:07;;;;;;;15.43;5.65;;;;;;;-4.95;77.38;94346.75;4964442;28;20118;-66
2023/02/25 04:23:33;;;;;;;9.60;4.37;;;;;;;-4.59;75.32;94342.34;4965295;28;20088;-66
2023/02/25 04:25:59;;;;;;;9.70;5.22;;;;;;;-5.05;77.65;94348.34;4963475;28;20102;-66
2023/02/25 04:28:24;;;;;;;11.23;5.40;;;;;;;-4.92;77.45;94341.31;4964197;28;20559;-66
2023/02/25 04:30:50;;;;;;;15.45;6.95;;;;;;;-5.01;76.88;94334.19;4964961;28;20085;-66
2023/02/25 04:33:15;;;;;;;12.27;6.60;;;;;;;-5.41;79.48;94343.97;4964197;28;20131;-65
2023/02/25 04:35:41;;;;;;;10.98;5.20;;;;;;;-5.30;80.55;94344.97;4965871;28;20079;-66
2023/02/25 04:38:06;;;;;;;9.48;5.80;;;;;;;-4.97;78.98;94365.03;4964269;28;20115;-66
2023/02/25 04:40:31;;;;;;;5.53;3.63;;;;;;;-4.57;77.46;94343.06;4964797;28;20079;-66
2023/02/25 04:42:57;;;;;;;10.18;5.25;;;;;;;-4.83;78.82;94348.44;4965879;28;20082;-66
2023/02/25 04:45:24;;;;;;;4.32;3.15;;;;;;;-4.76;78.38;94353.19;4964951;28;20107;-65
2023/02/25 04:47:58;;;;;;;10.75;4.32;;;;;;;-4.40;76.72;94359.13;4964848;28;20101;-65
2023/02/25 04:50:24;;;;;;;7.78;4.55;;;;;;;-4.61;77.34;94348.59;4964655;28;20727;-66
2023/02/25 04:52:49;;;;;;;13.98;5.50;;;;;;;-4.70;77.13;94347.50;4964713;28;20297;-66
2023/02/25 04:55:15;;;;;;;8.63;5.28;;;;;;;-4.55;76.77;94358.53;4965434;28;20074;-65
2023/02/25 04:57:41;;;;;;;13.27;6.35;;;;;;;-4.86;78.30;94355.63;4964829;28;20105;-65
2023/02/25 05:00:17;;;;;;;8.88;4.25;;;;;;;-4.98;78.67;94376.38;4964149;28;20133;-65
2023/02/25 05:02:42;;;;;;;10.38;3.97;;;;;;;-4.74;78.16;94351.28;4963181;28;20571;-66
2023/02/25 05:05:08;;;;;;;11.27;6.03;;;;;;;-4.52;76.42;94360.06;4964186;28;20106;-66
2023/02/25 05:07:34;;;;;;;11.43;5.65;;;;;;;-4.71;77.34;94361.44;4963344;28;20115;-65
2023/02/25 05:09:59;;;;;;;13.60;5.90;;;;;;;-5.02;78.26;94374.09;4965201;28;20134;-65
2023/02/25 05:12:25;;;;;;;12.57;5.97;;;;;;;-4.78;77.88;94376.66;4964797;28;20079;-65
2023/02/25 05:14:50;;;;;;;7.38;4.35;;;;;;;-4.63;77.22;94361.69;4964453;28;20107;-65
2023/02/25 05:17:15;;;;;;;16.50;6.25;;;;;;;-4.58;76.45;94356.97;4963732;28;20169;-66
2023/02/25 05:19:41;;;;;;;10.10;4.65;;;;;;;-4.57;76.75;94352.63;4965357;28;20070;-66
2023/02/25 05:22:07;;;;;;;12.13;4.82;;;;;;;-4.86;77.60;94360.81;4963686;28;20111;-66
2023/02/25 05:24:33;;;;;;;6.07;3.38;;;;;;;-4.31;75.75;94352.41;4962345;28;20086;-65
2023/02/25 05:27:03;;;;;;;15.27;6.13;;;;;;;-4.70;77.30;94355.28;4964268;28;20090;-65
2023/02/25 05:29:29;;;;;;;9.80;4.35;;;;;;;-4.37;75.68;94353.72;4964816;28;20349;-65
2023/02/25 05:31:54;;;;;;;13.23;6.13;;;;;;;-4.38;76.09;94356.44;4964992;28;20660;-65
2023/02/25 05:34:21;;;;;;;10.98;5.60;;;;;;;-4.27;74.65;94343.44;4962043;28;20579;-65
2023/02/25 05:36:47;;;;;;;12.77;5.70;;;;;;;-4.65;76.27;94361.00;4964963;28;20128;-65
2023/02/25 05:39:12;;;;;;;7.18;3.35;;;;;;;-4.24;75.47;94355.38;4964795;28;22101;-66
2023/02/25 05:41:38;;;;;;;6.97;3.58;;;;;;;-4.28;75.62;94354.75;4964793;28;20109;-65
2023/02/25 05:44:04;;;;;;;9.25;3.80;;;;;;;-4.11;74.35;94356.06;4963671;28;20078;-66
2023/02/25 05:46:29;;;;;;;9.02;4.82;;;;;;;-4.48;76.16;94362.31;4964448;28;20118;-65
2023/02/25 05:48:55;;;;;;;12.27;5.25;;;;;;;-4.70;76.62;94352.69;4964392;28;20119;-65
2023/02/25 05:51:22;;;;;;;9.98;5.75;;;;;;;-4.56;75.78;94351.66;4965038;28;20091;-65
2023/02/25 05:53:48;;;;;;;9.02;4.03;;;;;;;-4.44;76.11;94352.53;4963622;28;20110;-65
2023/02/25 05:56:15;;;;;;;11.75;4.78;;;;;;;-4.58;76.05;94359.56;4964732;28;20085;-66
2023/02/25 05:58:40;;;;;;;15.63;6.57;;;;;;;-4.89;77.82;94356.66;4964631;28;20107;-65
2023/02/25 06:01:12;;;;;;;5.82;3.80;;;;;;;-4.62;77.13;94350.34;4963784;28;20145;-66
2023/02/25 06:03:38;;;;;;;24.77;5.57;;;;;;;-4.60;76.70;94355.44;4963916;28;20079;-66
2023/02/25 06:06:04;;;;;;;12.80;4.63;;;;;;;-4.53;76.55;94351.44;4964494;28;20192;-66
2023/02/25 06:08:30;;;;;;;11.60;5.63;;;;;;;-4.25;74.87;94351.94;4964123;28;20368;-65
2023/02/25 06:10:56;;;;;;;19.52;7.07;;;;;;;-4.56;75.71;94367.25;4964632;28;20243;-65
2023/02/25 06:13:21;;;;;;;12.00;5.75;;;;;;;-4.56;76.31;94360.28;4964154;28;20472;-66
2023/02/25 06:15:47;;;;;;;43.83;7.75;;;;;;;-4.36;75.31;94357.13;4964179;28;20403;-66
2023/02/25 06:18:13;;;;;;;31.92;6.55;;;;;;;-4.75;76.64;94362.63;4964286;28;20580;-65
2023/02/25 06:20:38;;;;;;;18.10;5.47;;;;;;;-4.67;77.18;94362.88;4963948;28;20119;-65
2023/02/25 06:23:03;;;;;;;21.48;5.93;;;;;;;-4.57;76.10;94360.41;4964482;28;20075;-65
2023/02/25 06:25:31;;;;;;;12.10;6.30;;;;;;;-4.66;76.71;94358.50;4965008;28;20103;-65
2023/02/25 06:27:57;;;;;;;14.02;5.15;;;;;;;-4.56;76.18;94378.47;4966959;28;20086;-65
2023/02/25 06:30:22;;;;;;;31.98;5.72;;;;;;;-4.37;75.61;94369.31;4967765;28;20181;-65
2023/02/25 06:32:48;;;;;;;7.30;4.30;;;;;;;-4.24;74.65;94383.97;4967202;28;20101;-66
2023/02/25 06:35:13;;;;;;;9.20;5.13;;;;;;;-4.25;75.22;94382.31;4967918;28;20078;-66
2023/02/25 06:37:39;;;;;;;12.52;5.28;;;;;;;-4.06;74.65;94389.53;4966231;28;20107;-66
2023/02/25 06:40:06;;;;;;;14.60;6.25;;;;;;;-4.02;73.99;94388.34;4966879;28;20720;-65
2023/02/25 06:42:32;;;;;;;10.85;6.00;;;;;;;-4.27;74.37;94392.00;4967184;28;20201;-66
2023/02/25 06:44:57;;;;;;;16.52;7.40;;;;;;;-4.55;75.72;94402.69;4966354;28;20117;-66
2023/02/25 06:47:23;;;;;;;11.80;7.00;;;;;;;-4.59;75.69;94404.69;4967189;28;20105;-65
2023/02/25 06:49:48;;;;;;;9.07;5.05;;;;;;;-4.72;76.99;94411.75;4966842;28;20106;-66
2023/02/25 06:52:14;;;;;;;14.13;7.03;;;;;;;-4.93;77.92;94408.94;4967363;28;20105;-65
2023/02/25 06:54:39;;;;;;;19.67;7.15;;;;;;;-4.83;76.99;94394.34;4966878;28;20183;-65
2023/02/25 06:57:04;;;;;;;14.60;9.60;;;;;;;-5.01;77.74;94419.88;4967136;28;20109;-65
2023/02/25 06:59:30;;;;;;;9.93;5.38;;;;;;;-4.45;76.29;94410.63;4967802;28;20685;-66
2023/02/25 07:01:55;;;;;;;11.60;4.90;;;;;;;-4.31;75.46;94415.59;4966972;28;20136;-66
2023/02/25 07:04:21;;;;;;;8.48;4.97;;;;;;;-4.36;75.15;94412.53;4967325;28;20090;-65
2023/02/25 07:06:46;;;;;;;14.90;7.88;;;;;;;-4.80;76.95;94432.25;4967184;28;20107;-66
2023/02/25 07:09:11;;;;;;;17.60;7.30;;;;;;;-4.49;75.85;94427.41;4967131;28;20095;-66
2023/02/25 07:11:37;;;;;;;14.40;6.72;;;;;;;-4.53;75.92;94424.19;4967190;28;20089;-66
2023/02/25 07:14:03;;;;;;;19.45;9.27;;;;;;;-4.99;78.50;94412.81;4966909;28;20098;-65
2023/02/25 07:16:28;;;;;;;19.73;8.85;;;;;;;-4.92;77.48;94442.59;4966580;28;20074;-66
2023/02/25 07:18:55;;;;;;;22.40;8.75;;;;;;;-4.93;77.36;94412.34;4967357;28;20088;-65
2023/02/25 07:21:21;;;;;;;17.45;6.57;;;;;;;-4.71;77.25;94429.81;4964446;28;20209;-65
2023/02/25 07:23:47;;;;;;;23.48;8.52;;;;;;;-4.96;77.61;94436.78;4967254;28;20455;-65
2023/02/25 07:26:13;;;;;;;21.90;7.65;;;;;;;-5.00;77.78;94439.72;4966047;28;20097;-66
2023/02/25 07:28:38;;;;;;;20.38;7.18;;;;;;;-5.04;78.12;94446.06;4966969;28;20106;-65
2023/02/25 07:31:10;;;;;;;21.35;10.38;;;;;;;-5.18;78.51;94447.03;4966628;28;20518;-65
2023/02/25 07:33:35;;;;;;;19.75;9.73;;;;;;;-5.10;78.35;94452.50;4966864;28;20185;-65
2023/02/25 07:36:00;;;;;;;19.65;8.68;;;;;;;-5.37;79.60;94454.38;4967060;28;20078;-66
2023/02/25 07:38:26;;;;;;;24.35;10.40;;;;;;;-5.33;79.19;94460.19;4965661;28;20102;-65
2023/02/25 07:40:51;;;;;;;17.38;7.43;;;;;;;-5.47;80.10;94461.97;4966191;28;20102;-65
2023/02/25 07:43:16;;;;;;;14.77;6.60;;;;;;;-4.72;77.72;94454.09;4967098;28;20555;-66
2023/02/25 07:45:42;;;;;;;21.17;5.82;;;;;;;-4.46;76.63;94451.38;4965307;28;20100;-65
2023/02/25 07:48:07;;;;;;;17.02;6.47;;;;;;;-4.48;76.59;94452.44;4966278;28;20073;-66
2023/02/25 07:50:33;;;;;;;14.52;5.57;;;;;;;-3.97;74.36;94443.41;4966009;28;20102;-65
2023/02/25 07:52:58;;;;;;;12.88;5.00;;;;;;;-3.84;74.11;94448.53;4964679;28;20109;-65
2023/02/25 07:55:24;;;;;;;16.63;7.90;;;;;;;-3.99;74.13;94450.53;4963156;28;20102;-65
2023/02/25 07:57:49;;;;;;;23.25;9.73;;;;;;;-4.31;74.25;94453.78;4963111;28;20169;-65
2023/02/25 08:00:16;;;;;;;19.08;7.22;;;;;;;-4.06;73.14;94451.94;4963504;28;20127;-65
2023/02/25 08:02:42;;;;;;;16.65;6.15;;;;;;;-4.47;75.48;94454.09;4962437;28;20197;-65
2023/02/25 08:05:08;;;;;;;22.05;11.13;;;;;;;-4.62;75.30;94453.47;4963098;28;20320;-65
2023/02/25 08:07:33;;;;;;;22.35;8.20;;;;;;;-4.62;75.82;94459.47;4962862;28;20303;-65
2023/02/25 08:09:59;;;;;;;19.33;6.68;;;;;;;-4.66;75.61;94455.44;4963004;28;20143;-65
2023/02/25 08:12:24;;;;;;;13.90;6.50;;;;;;;-4.79;76.81;94463.28;4962662;28;20461;-65
2023/02/25 08:14:49;;;;;;;15.27;7.13;;;;;;;-4.35;74.81;94455.78;4962810;28;20116;-65
2023/02/25 08:17:15;;;;;;;15.27;6.55;;;;;;;-4.56;75.82;94472.00;4962455;28;20169;-65
2023/02/25 08:19:40;;;;;;;24.45;10.80;;;;;;;-4.76;75.47;94472.66;4962856;28;20085;-65
2023/02/25 08:22:07;;;;;;;12.77;6.47;;;;;;;-4.83;76.14;94473.06;4960942;28;20114;-65
2023/02/25 08:24:33;;;;;;;18.50;7.93;;;;;;;-4.53;74.76;94470.13;4962670;28;20113;-65
2023/02/25 08:26:58;;;;;;;21.30;9.50;;;;;;;-4.77;75.30;94470.97;4962851;28;20098;-65
2023/02/25 08:29:23;;;;;;;18.60;8.90;;;;;;;-4.91;76.30;94469.38;4962747;28;20572;-65
2023/02/25 08:31:50;;;;;;;11.23;5.50;;;;;;;-4.43;74.91;94460.72;4962113;28;20088;-66
2023/02/25 08:34:16;;;;;;;22.65;8.23;;;;;;;-4.77;75.61;94463.19;4962018;28;20105;-66
2023/02/25 08:36:42;;;;;;;16.98;7.30;;;;;;;-4.31;73.63;94471.97;4961847;28;20074;-66
2023/02/25 08:39:08;;;;;;;24.40;6.97;;;;;;;-4.29;73.85;94472.69;4962884;28;20574;-65
2023/02/25 08:41:34;;;;;;;14.95;6.10;;;;;;;-4.18;73.18;94477.91;4958333;28;20104;-65
2023/02/25 08:44:00;;;;;;;12.48;5.35;;;;;;;-4.39;73.91;94467.34;4960765;28;20467;-65
2023/02/25 08:46:26;;;;;;;10.63;4.82;;;;;;;-3.93;72.86;94480.44;4961425;28;20152;-66
2023/02/25 08:48:52;;;;;;;12.68;5.05;;;;;;;-3.68;71.81;94483.75;4961064;28;20160;-65
2023/02/25 08:51:18;;;;;;;15.00;5.55;;;;;;;-3.91;72.74;94475.94;4962578;28;20120;-65
2023/02/25 08:53:43;;;;;;;11.52;5.20;;;;;;;-4.40;74.82;94473.47;4961825;28;20469;-65
2023/02/25 08:56:10;;;;;;;12.38;5.72;;;;;;;-4.38;75.18;94481.16;4961694;28;20086;-65
2023/02/25 08:58:36;;;;;;;16.10;6.13;;;;;;;-3.99;73.08;94483.50;4958810;28;20096;-65
2023/02/25 09:01:11;;;;;;;15.30;6.32;;;;;;;-3.92;73.11;94475.13;4960245;28;20112;-65
2023/02/25 09:03:37;;;;;;;21.27;7.90;;;;;;;-4.47;74.33;94483.50;4961992;28;20113;-65
2023/02/25 09:06:03;;;;;;;13.00;6.47;;;;;;;-4.31;74.51;94480.59;4959598;28;20110;-65
2023/02/25 09:08:30;;;;;;;17.73;6.45;;;;;;;-3.96;73.26;94480.66;4961897;28;20509;-65
2023/02/25 09:10:55;;;;;;;15.30;6.13;;;;;;;-4.02;72.96;94468.13;4962365;28;20153;-65
2023/02/25 09:13:21;;;;;;;16.15;8.07;;;;;;;-4.53;73.59;94483.09;4961290;28;20589;-65
2023/02/25 09:15:54;;;;;;;11.75;5.97;;;;;;;-3.92;73.10;94484.69;4960571;28;20113;-65
2023/02/25 09:18:20;;;;;;;25.13;7.90;;;;;;;-4.62;74.35;94485.44;4960603;28;20390;-65
2023/02/25 09:20:49;;;;;;;14.95;4.88;;;;;;;-4.07;73.98;94474.50;4958389;28;20479;-65
2023/02/25 09:23:14;;;;;;;16.60;6.63;;;;;;;-3.97;72.57;94469.44;4961801;28;20172;-65
2023/02/25 09:25:43;;;;;;;13.80;5.45;;;;;;;-3.85;73.37;94467.69;4960262;28;20531;-65
2023/02/25 09:28:08;;;;;;;16.80;5.00;;;;;;;-3.49;71.50;94472.78;4960737;28;20130;-65
2023/02/25 09:30:34;;;;;;;16.88;7.47;;;;;;;-4.01;72.52;94480.19;4961821;28;20128;-65
2023/02/25 09:32:59;;;;;;;13.55;5.70;;;;;;;-3.94;73.28;94476.19;4956283;28;20377;-65
2023/02/25 09:35:24;;;;;;;14.77;6.72;;;;;;;-4.02;73.00;94471.56;4958963;28;20091;-65
2023/02/25 09:37:50;;;;;;;13.52;6.22;;;;;;;-3.91;72.48;94473.34;4956524;28;20093;-65
2023/02/25 09:40:17;;;;;;;12.98;5.68;;;;;;;-3.96;73.09;94471.09;4957473;28;20087;-65
2023/02/25 09:42:57;;;;;;;18.05;8.20;;;;;;;-4.30;73.57;94478.81;4949392;28;20101;-64
2023/02/25 09:45:22;;;;;;;19.42;7.85;;;;;;;-4.42;75.41;94475.34;4959540;28;20169;-65
2023/02/25 09:47:57;;;;;;;20.27;8.88;;;;;;;-4.68;76.24;94478.91;4958745;28;20092;-64
2023/02/25 09:50:25;;;;;;;21.45;6.85;;;;;;;-4.41;75.24;94482.22;4957870;28;20111;-65
2023/02/25 09:53:07;;;;;;;17.80;8.05;;;;;;;-4.46;75.93;94472.16;4968677;28;20213;-65
2023/02/25 09:55:38;;;;;;;16.42;6.70;;;;;;;-4.94;78.15;94491.19;4959526;28;20082;-65
2023/02/25 09:58:26;;;;;;;15.90;6.20;;;;;;;-4.69;77.50;94489.41;4956267;28;20107;-65
2023/02/25 10:01:03;;;;;;;21.05;9.30;;;;;;;-4.92;78.69;94510.09;4961841;28;20134;-65
2023/02/25 10:03:57;;;;;;;20.13;8.80;;;;;;;-5.25;80.75;94530.53;4947811;28;20081;-65
2023/02/25 10:06:36;;;;;;;9.93;5.60;;;;;;;-4.59;81.18;94529.38;4961161;28;20201;-65
2023/02/25 10:09:09;;;;;;;7.78;4.40;;;;;;;-3.71;76.64;94512.63;4962880;28;20105;-64
2023/02/25 10:12:00;;;;;;;5.97;2.67;;;;;;;-2.96;74.29;94515.56;4961474;28;20124;-65
2023/02/25 10:14:37;;;;;;;2.80;1.88;;;;;;;-3.36;74.26;94519.50;4938180;28;20345;-64
2023/02/25 10:17:23;;;;;;;15.32;8.10;;;;;;;-2.76;73.81;94521.81;4958296;28;20471;-64
2023/02/25 10:20:29;;;;;;;19.90;11.18;;;;;;;-2.09;72.18;94518.25;4964262;28;20131;-65
2023/02/25 10:23:16;;;;;;;10.98;7.00;;;;;;;-2.36;71.97;94516.94;4961779;28;20138;-65
2023/02/25 10:25:44;;;;;;;7.93;4.40;;;;;;;-2.13;69.05;94525.47;4977164;28;20128;-65
2023/02/25 10:28:13;;;;;;;12.43;5.25;;;;;;;-1.54;70.05;94527.63;4961352;28;20090;-65
2023/02/25 10:30:56;;;;;;;12.02;6.10;;;;;;;-1.96;68.51;94525.88;4961868;28;20598;-65
2023/02/25 10:33:26;;;;;;;3.28;1.90;;;;;;;-1.94;67.55;94531.78;4963533;28;20623;-65
2023/02/25 10:36:16;;;;;;;7.85;4.72;;;;;;;-1.57;66.61;94534.91;4964826;28;20105;-65
2023/02/25 10:38:44;;;;;;;3.08;2.08;;;;;;;-1.89;66.47;94534.03;4959887;28;20102;-65
2023/02/25 10:41:09;;;;;;;4.88;2.92;;;;;;;-1.38;65.82;94542.00;4974912;28;20088;-65
2023/02/25 10:43:35;;;;;;;4.65;2.47;;;;;;;-1.67;65.81;94553.94;4964194;28;20108;-65
2023/02/25 10:46:11;;;;;;;4.80;2.63;;;;;;;-1.85;66.86;94551.91;4962423;28;20097;-64
2023/02/25 10:48:37;;;;;;;11.82;5.25;;;;;;;-1.52;66.35;94536.16;4961691;28;20075;-64
2023/02/25 10:51:11;;;;;;;7.75;3.63;;;;;;;-1.75;65.64;94548.53;4963881;28;20649;-65
2023/02/25 10:53:38;;;;;;;18.70;11.02;;;;;;;-1.52;66.78;94553.63;4960160;28;20152;-65
2023/02/25 10:56:03;;;;;;;9.98;6.20;;;;;;;-1.45;64.69;94546.94;4963825;28;20069;-65
2023/02/25 10:58:39;;;;;;;14.27;7.68;;;;;;;-1.02;65.05;94547.66;4961488;28;20124;-73
2023/02/25 11:01:19;;;;;;;4.50;2.08;;;;;;;-0.76;61.90;94546.38;4963342;28;20575;-73
2023/02/25 11:03:53;;;;;;;7.25;3.42;;;;;;;-0.26;61.25;94552.53;4962285;28;20067;-73
2023/02/25 11:06:27;;;;;;;10.18;5.68;;;;;;;0.11;59.95;94549.25;4946989;28;20421;-73
2023/02/25 11:08:55;;;;;;;15.88;8.02;;;;;;;0.06;62.29;94540.97;4926900;28;20102;-73
2023/02/25 11:11:25;;;;;;;11.48;5.82;;;;;;;0.07;61.88;94543.44;4942232;28;20061;-73
2023/02/25 11:14:04;;;;;;;9.30;3.28;;;;;;;0.55;60.57;94546.09;4959740;28;20083;-73
2023/02/25 11:16:30;;;;;;;9.68;4.75;;;;;;;1.09;60.78;94535.03;4962292;28;20056;-73
2023/02/25 11:19:00;;;;;;;2.70;1.70;;;;;;;1.37;57.91;94542.06;4929797;28;20059;-73
2023/02/25 11:21:35;;;;;;;3.00;1.95;;;;;;;1.13;58.12;94542.59;4960779;28;20099;-73
2023/02/25 11:24:15;;;;;;;3.80;1.20;;;;;;;0.08;59.54;94550.31;4946543;28;20061;-73
2023/02/25 11:26:42;;;;;;;;;;;;;;;0.34;61.27;94549.75;4944032;28;20102;-73
2023/02/25 11:29:10;;;;;;;1.65;1.13;;;;;;;-0.42;61.46;94551.28;4944253;28;19971;-73
2023/02/25 11:31:39;;;;;;;2.80;1.30;;;;;;;-0.35;61.60;94555.00;4945505;28;20332;-73
2023/02/25 11:34:13;;;;;;;4.00;1.55;;;;;;;-0.32;60.85;94552.13;4945946;28;20091;-73